sensor_id;sensor_type;location;lat;lon;timestamp;P1;durP1;ratioP1;P2;durP2;ratioP2
43363;SDS011;40636;52.424;-1.948;2023-02-28T00:00:30;5.38;;;3.60;;
43363;SDS011;40636;52.424;-1.948;2023-02-28T00:02:57;4.28;;;3.00;;
43363;SDS011;40636;52.424;-1.948;2023-02-28T00:05:25;5.07;;;3.67;;
43363;SDS011;40636;52.424;-1.948;2023-02-28T00:07:52;3.72;;;3.15;;
43363;SDS011;40636;52.424;-1.948;2023-02-28T00:10:20;7.63;;;3.33;;
43363;SDS011;40636;52.424;-1.948;2023-02-28T00:12:50;6.22;;;3.55;;
43363;SDS011;40636;52.424;-1.948;2023-02-28T00:15:17;6.88;;;4.30;;
43363;SDS011;40636;52.424;-1.948;2023-02-28T00:17:45;4.93;;;3.15;;
43363;SDS011;40636;52.424;-1.948;2023-02-28T00:20:12;7.18;;;3.47;;
43363;SDS011;40636;52.424;-1.948;2023-02-28T00:22:40;6.05;;;3.70;;
43363;SDS011;40636;52.424;-1.948;2023-02-28T00:25:09;4.55;;;3.55;;
43363;SDS011;40636;52.424;-1.948;2023-02-28T00:27:39;6.35;;;4.28;;
43363;SDS011;40636;52.424;-1.948;2023-02-28T00:30:07;9.35;;;3.80;;
43363;SDS011;40636;52.424;-1.948;2023-02-28T00:32:37;7.07;;;4.43;;
43363;SDS011;40636;52.424;-1.948;2023-02-28T00:35:04;7.50;;;4.47;;
43363;SDS011;40636;52.424;-1.948;2023-02-28T00:37:31;7.68;;;4.50;;
43363;SDS011;40636;52.424;-1.948;2023-02-28T00:39:58;6.97;;;4.53;;
43363;SDS011;40636;52.424;-1.948;2023-02-28T00:42:25;9.13;;;4.70;;
43363;SDS011;40636;52.424;-1.948;2023-02-28T00:44:51;9.05;;;6.10;;
43363;SDS011;40636;52.424;-1.948;2023-02-28T00:47:18;9.73;;;5.85;;
43363;SDS011;40636;52.424;-1.948;2023-02-28T00:49:45;11.95;;;6.65;;
43363;SDS011;40636;52.424;-1.948;2023-02-28T00:52:11;12.60;;;6.93;;
43363;SDS011;40636;52.424;-1.948;2023-02-28T00:54:38;16.23;;;6.70;;
43363;SDS011;40636;52.424;-1.948;2023-02-28T00:57:05;10.70;;;6.70;;
43363;SDS011;40636;52.424;-1.948;2023-02-28T00:59:31;14.30;;;7.65;;
43363;SDS011;40636;52.424;-1.948;2023-02-28T01:01:58;9.43;;;6.53;;
43363;SDS011;40636;52.424;-1.948;2023-02-28T01:04:25;17.08;;;6.97;;
43363;SDS011;40636;52.424;-1.948;2023-02-28T01:06:51;12.85;;;7.45;;
43363;SDS011;40636;52.424;-1.948;2023-02-28T01:09:18;13.38;;;8.02;;
43363;SDS011;40636;52.424;-1.948;2023-02-28T01:11:45;15.25;;;8.60;;
43363;SDS011;40636;52.424;-1.948;2023-02-28T01:14:12;15.80;;;8.63;;
43363;SDS011;40636;52.424;-1.948;2023-02-28T01:16:41;17.23;;;10.13;;
43363;SDS011;40636;52.424;-1.948;2023-02-28T01:19:08;16.52;;;8.98;;
43363;SDS011;40636;52.424;-1.948;2023-02-28T01:21:35;20.10;;;11.05;;
43363;SDS011;40636;52.424;-1.948;2023-02-28T01:24:02;15.43;;;8.95;;
43363;SDS011;40636;52.424;-1.948;2023-02-28T01:26:30;16.70;;;9.85;;
43363;SDS011;40636;52.424;-1.948;2023-02-28T01:28:57;13.50;;;7.97;;
43363;SDS011;40636;52.424;-1.948;2023-02-28T01:31:24;17.52;;;9.55;;
43363;SDS011;40636;52.424;-1.948;2023-02-28T01:33:51;18.77;;;9.75;;
43363;SDS011;40636;52.424;-1.948;2023-02-28T01:36:20;14.90;;;8.88;;
43363;SDS011;40636;52.424;-1.948;2023-02-28T01:38:48;17.15;;;9.40;;
43363;SDS011;40636;52.424;-1.948;2023-02-28T01:41:22;15.63;;;8.30;;
43363;SDS011;40636;52.424;-1.948;2023-02-28T01:43:58;15.35;;;8.85;;
43363;SDS011;40636;52.424;-1.948;2023-02-28T01:46:32;18.35;;;10.60;;
43363;SDS011;40636;52.424;-1.948;2023-02-28T01:49:08;24.83;;;10.07;;
43363;SDS011;40636;52.424;-1.948;2023-02-28T01:51:43;15.55;;;8.88;;
43363;SDS011;40636;52.424;-1.948;2023-02-28T01:54:18;18.33;;;9.65;;
43363;SDS011;40636;52.424;-1.948;2023-02-28T01:56:49;18.38;;;9.50;;
43363;SDS011;40636;52.424;-1.948;2023-02-28T01:59:29;19.00;;;9.35;;
43363;SDS011;40636;52.424;-1.948;2023-02-28T02:02:01;15.50;;;8.45;;
43363;SDS011;40636;52.424;-1.948;2023-02-28T02:04:32;14.93;;;8.20;;
43363;SDS011;40636;52.424;-1.948;2023-02-28T02:07:03;13.77;;;7.63;;
43363;SDS011;40636;52.424;-1.948;2023-02-28T02:09:31;18.70;;;9.60;;
43363;SDS011;40636;52.424;-1.948;2023-02-28T02:11:57;16.50;;;8.48;;
43363;SDS011;40636;52.424;-1.948;2023-02-28T02:14:40;18.55;;;9.20;;
43363;SDS011;40636;52.424;-1.948;2023-02-28T02:17:34;17.08;;;9.57;;
43363;SDS011;40636;52.424;-1.948;2023-02-28T02:36:48;16.10;;;8.40;;
43363;SDS011;40636;52.424;-1.948;2023-02-28T02:41:58;18.88;;;9.40;;
43363;SDS011;40636;52.424;-1.948;2023-02-28T02:44:31;15.93;;;6.80;;
43363;SDS011;40636;52.424;-1.948;2023-02-28T02:47:15;13.98;;;7.68;;
43363;SDS011;40636;52.424;-1.948;2023-02-28T02:49:50;16.30;;;8.50;;
43363;SDS011;40636;52.424;-1.948;2023-02-28T02:52:20;14.45;;;7.30;;
43363;SDS011;40636;52.424;-1.948;2023-02-28T02:54:51;13.20;;;6.45;;
43363;SDS011;40636;52.424;-1.948;2023-02-28T02:58:05;15.52;;;8.45;;
43363;SDS011;40636;52.424;-1.948;2023-02-28T03:00:26;15.38;;;7.35;;
43363;SDS011;40636;52.424;-1.948;2023-02-28T03:02:57;15.60;;;7.47;;
43363;SDS011;40636;52.424;-1.948;2023-02-28T03:05:26;14.30;;;6.63;;
43363;SDS011;40636;52.424;-1.948;2023-02-28T03:08:08;15.60;;;7.88;;
43363;SDS011;40636;52.424;-1.948;2023-02-28T03:10:36;13.10;;;6.43;;
43363;SDS011;40636;52.424;-1.948;2023-02-28T03:26:57;19.42;;;7.57;;
43363;SDS011;40636;52.424;-1.948;2023-02-28T03:32:06;14.88;;;7.57;;
43363;SDS011;40636;52.424;-1.948;2023-02-28T03:34:46;15.82;;;9.52;;
43363;SDS011;40636;52.424;-1.948;2023-02-28T03:37:20;16.60;;;8.60;;
43363;SDS011;40636;52.424;-1.948;2023-02-28T03:39:53;13.32;;;7.07;;
43363;SDS011;40636;52.424;-1.948;2023-02-28T03:42:27;18.60;;;8.30;;
43363;SDS011;40636;52.424;-1.948;2023-02-28T03:44:57;13.13;;;6.90;;
43363;SDS011;40636;52.424;-1.948;2023-02-28T03:47:46;12.05;;;6.57;;
43363;SDS011;40636;52.424;-1.948;2023-02-28T03:52:47;11.02;;;6.55;;
43363;SDS011;40636;52.424;-1.948;2023-02-28T03:55:18;15.55;;;6.80;;
43363;SDS011;40636;52.424;-1.948;2023-02-28T03:57:53;10.40;;;5.97;;
43363;SDS011;40636;52.424;-1.948;2023-02-28T04:00:39;11.18;;;6.60;;
43363;SDS011;40636;52.424;-1.948;2023-02-28T04:03:11;10.18;;;5.57;;
43363;SDS011;40636;52.424;-1.948;2023-02-28T04:05:46;11.90;;;5.80;;
43363;SDS011;40636;52.424;-1.948;2023-02-28T04:08:16;10.90;;;5.15;;
43363;SDS011;40636;52.424;-1.948;2023-02-28T04:10:43;10.02;;;5.32;;
43363;SDS011;40636;52.424;-1.948;2023-02-28T04:13:14;10.02;;;5.03;;
43363;SDS011;40636;52.424;-1.948;2023-02-28T04:15:40;11.13;;;5.65;;
43363;SDS011;40636;52.424;-1.948;2023-02-28T04:18:07;11.30;;;6.03;;
43363;SDS011;40636;52.424;-1.948;2023-02-28T04:20:34;7.90;;;4.95;;
43363;SDS011;40636;52.424;-1.948;2023-02-28T04:23:01;7.25;;;4.47;;
43363;SDS011;40636;52.424;-1.948;2023-02-28T04:25:27;5.55;;;3.20;;
43363;SDS011;40636;52.424;-1.948;2023-02-28T04:27:54;8.45;;;3.50;;
43363;SDS011;40636;52.424;-1.948;2023-02-28T04:30:21;6.47;;;3.45;;
43363;SDS011;40636;52.424;-1.948;2023-02-28T04:32:47;7.82;;;3.53;;
43363;SDS011;40636;52.424;-1.948;2023-02-28T04:35:14;8.15;;;3.65;;
43363;SDS011;40636;52.424;-1.948;2023-02-28T04:37:41;8.80;;;4.13;;
43363;SDS011;40636;52.424;-1.948;2023-02-28T04:40:08;6.38;;;3.45;;
43363;SDS011;40636;52.424;-1.948;2023-02-28T04:42:35;8.88;;;3.90;;
43363;SDS011;40636;52.424;-1.948;2023-02-28T04:45:03;5.25;;;3.35;;
43363;SDS011;40636;52.424;-1.948;2023-02-28T04:47:30;9.40;;;4.60;;
43363;SDS011;40636;52.424;-1.948;2023-02-28T04:49:57;7.75;;;3.88;;
43363;SDS011;40636;52.424;-1.948;2023-02-28T04:52:24;8.77;;;4.85;;
43363;SDS011;40636;52.424;-1.948;2023-02-28T04:54:50;7.90;;;4.53;;
43363;SDS011;40636;52.424;-1.948;2023-02-28T04:57:17;10.90;;;5.22;;
43363;SDS011;40636;52.424;-1.948;2023-02-28T04:59:43;10.48;;;5.10;;
43363;SDS011;40636;52.424;-1.948;2023-02-28T05:02:10;9.15;;;5.40;;
43363;SDS011;40636;52.424;-1.948;2023-02-28T05:04:37;12.82;;;6.50;;
43363;SDS011;40636;52.424;-1.948;2023-02-28T05:07:03;11.90;;;6.05;;
43363;SDS011;40636;52.424;-1.948;2023-02-28T05:09:30;8.60;;;4.40;;
43363;SDS011;40636;52.424;-1.948;2023-02-28T05:11:59;13.73;;;6.65;;
43363;SDS011;40636;52.424;-1.948;2023-02-28T05:14:25;11.07;;;6.03;;
43363;SDS011;40636;52.424;-1.948;2023-02-28T05:16:52;13.80;;;5.88;;
43363;SDS011;40636;52.424;-1.948;2023-02-28T05:19:19;13.00;;;6.05;;
43363;SDS011;40636;52.424;-1.948;2023-02-28T05:21:53;14.32;;;6.82;;
43363;SDS011;40636;52.424;-1.948;2023-02-28T05:24:21;10.20;;;6.10;;
43363;SDS011;40636;52.424;-1.948;2023-02-28T05:26:51;16.00;;;8.10;;
43363;SDS011;40636;52.424;-1.948;2023-02-28T05:29:19;12.57;;;6.15;;
43363;SDS011;40636;52.424;-1.948;2023-02-28T05:31:46;14.07;;;7.07;;
43363;SDS011;40636;52.424;-1.948;2023-02-28T05:34:13;15.25;;;6.88;;
43363;SDS011;40636;52.424;-1.948;2023-02-28T05:36:41;14.55;;;7.38;;
43363;SDS011;40636;52.424;-1.948;2023-02-28T05:39:08;16.52;;;7.05;;
43363;SDS011;40636;52.424;-1.948;2023-02-28T05:41:42;13.23;;;6.55;;
43363;SDS011;40636;52.424;-1.948;2023-02-28T05:44:10;16.30;;;7.43;;
43363;SDS011;40636;52.424;-1.948;2023-02-28T05:46:37;14.68;;;6.40;;
43363;SDS011;40636;52.424;-1.948;2023-02-28T05:49:04;14.57;;;6.95;;
43363;SDS011;40636;52.424;-1.948;2023-02-28T05:51:31;15.90;;;7.50;;
43363;SDS011;40636;52.424;-1.948;2023-02-28T05:53:58;14.70;;;6.85;;
43363;SDS011;40636;52.424;-1.948;2023-02-28T05:56:27;16.02;;;7.20;;
43363;SDS011;40636;52.424;-1.948;2023-02-28T05:58:54;14.65;;;8.40;;
43363;SDS011;40636;52.424;-1.948;2023-02-28T06:01:31;15.02;;;7.72;;
43363;SDS011;40636;52.424;-1.948;2023-02-28T06:04:07;17.70;;;8.02;;
43363;SDS011;40636;52.424;-1.948;2023-02-28T06:06:48;18.40;;;9.45;;
43363;SDS011;40636;52.424;-1.948;2023-02-28T06:09:15;15.80;;;7.80;;
43363;SDS011;40636;52.424;-1.948;2023-02-28T06:11:43;18.77;;;9.27;;
43363;SDS011;40636;52.424;-1.948;2023-02-28T06:14:18;21.98;;;7.95;;
43363;SDS011;40636;52.424;-1.948;2023-02-28T06:16:46;16.83;;;8.55;;
43363;SDS011;40636;52.424;-1.948;2023-02-28T06:19:12;14.70;;;8.35;;
43363;SDS011;40636;52.424;-1.948;2023-02-28T06:21:39;15.88;;;7.55;;
43363;SDS011;40636;52.424;-1.948;2023-02-28T06:24:06;13.77;;;7.55;;
43363;SDS011;40636;52.424;-1.948;2023-02-28T06:26:34;19.73;;;7.97;;
43363;SDS011;40636;52.424;-1.948;2023-02-28T06:29:01;17.85;;;7.93;;
43363;SDS011;40636;52.424;-1.948;2023-02-28T06:31:27;15.80;;;6.47;;
43363;SDS011;40636;52.424;-1.948;2023-02-28T06:33:55;15.13;;;6.55;;
43363;SDS011;40636;52.424;-1.948;2023-02-28T06:36:23;15.43;;;7.75;;
43363;SDS011;40636;52.424;-1.948;2023-02-28T06:38:50;13.90;;;7.05;;
43363;SDS011;40636;52.424;-1.948;2023-02-28T06:41:21;15.25;;;7.63;;
43363;SDS011;40636;52.424;-1.948;2023-02-28T06:43:50;14.23;;;7.07;;
43363;SDS011;40636;52.424;-1.948;2023-02-28T06:46:16;18.75;;;7.90;;
43363;SDS011;40636;52.424;-1.948;2023-02-28T06:48:43;16.60;;;7.82;;
43363;SDS011;40636;52.424;-1.948;2023-02-28T06:51:12;20.17;;;8.73;;
43363;SDS011;40636;52.424;-1.948;2023-02-28T06:53:40;16.52;;;8.07;;
43363;SDS011;40636;52.424;-1.948;2023-02-28T06:56:09;16.70;;;7.85;;
43363;SDS011;40636;52.424;-1.948;2023-02-28T06:58:37;15.57;;;7.38;;
43363;SDS011;40636;52.424;-1.948;2023-02-28T07:01:05;17.23;;;9.40;;
43363;SDS011;40636;52.424;-1.948;2023-02-28T07:03:34;16.85;;;7.80;;
43363;SDS011;40636;52.424;-1.948;2023-02-28T07:06:02;18.00;;;9.48;;
43363;SDS011;40636;52.424;-1.948;2023-02-28T07:08:30;17.55;;;8.65;;
43363;SDS011;40636;52.424;-1.948;2023-02-28T07:10:57;18.40;;;8.25;;
43363;SDS011;40636;52.424;-1.948;2023-02-28T07:13:24;15.60;;;8.93;;
43363;SDS011;40636;52.424;-1.948;2023-02-28T07:15:58;16.50;;;8.07;;
43363;SDS011;40636;52.424;-1.948;2023-02-28T07:18:27;17.98;;;8.40;;
43363;SDS011;40636;52.424;-1.948;2023-02-28T07:20:54;16.05;;;8.27;;
43363;SDS011;40636;52.424;-1.948;2023-02-28T07:23:21;15.30;;;8.45;;
43363;SDS011;40636;52.424;-1.948;2023-02-28T07:25:49;18.70;;;8.35;;
43363;SDS011;40636;52.424;-1.948;2023-02-28T07:28:16;15.90;;;8.23;;
43363;SDS011;40636;52.424;-1.948;2023-02-28T07:30:42;16.40;;;7.70;;
43363;SDS011;40636;52.424;-1.948;2023-02-28T07:33:09;17.80;;;7.85;;
43363;SDS011;40636;52.424;-1.948;2023-02-28T07:35:36;15.70;;;8.00;;
43363;SDS011;40636;52.424;-1.948;2023-02-28T07:38:03;15.23;;;7.70;;
43363;SDS011;40636;52.424;-1.948;2023-02-28T07:40:30;13.35;;;5.57;;
43363;SDS011;40636;52.424;-1.948;2023-02-28T07:42:58;12.10;;;6.35;;
43363;SDS011;40636;52.424;-1.948;2023-02-28T07:45:26;14.52;;;6.82;;
43363;SDS011;40636;52.424;-1.948;2023-02-28T07:47:53;10.25;;;5.63;;
43363;SDS011;40636;52.424;-1.948;2023-02-28T07:50:19;12.35;;;5.95;;
43363;SDS011;40636;52.424;-1.948;2023-02-28T07:52:46;12.85;;;7.00;;
43363;SDS011;40636;52.424;-1.948;2023-02-28T07:55:13;16.40;;;5.45;;
43363;SDS011;40636;52.424;-1.948;2023-02-28T07:57:40;15.27;;;6.57;;
43363;SDS011;40636;52.424;-1.948;2023-02-28T08:00:09;13.93;;;5.78;;
43363;SDS011;40636;52.424;-1.948;2023-02-28T08:02:37;10.43;;;5.45;;
43363;SDS011;40636;52.424;-1.948;2023-02-28T08:05:05;11.93;;;5.25;;
43363;SDS011;40636;52.424;-1.948;2023-02-28T08:07:32;11.18;;;5.38;;
43363;SDS011;40636;52.424;-1.948;2023-02-28T08:09:59;11.52;;;5.53;;
43363;SDS011;40636;52.424;-1.948;2023-02-28T08:12:26;10.05;;;4.82;;
43363;SDS011;40636;52.424;-1.948;2023-02-28T08:14:53;9.40;;;5.15;;
43363;SDS011;40636;52.424;-1.948;2023-02-28T08:17:20;9.85;;;4.90;;
43363;SDS011;40636;52.424;-1.948;2023-02-28T08:19:46;7.95;;;5.10;;
43363;SDS011;40636;52.424;-1.948;2023-02-28T08:22:13;8.25;;;4.57;;
43363;SDS011;40636;52.424;-1.948;2023-02-28T08:24:43;12.57;;;5.32;;
43363;SDS011;40636;52.424;-1.948;2023-02-28T08:27:10;9.50;;;5.07;;
43363;SDS011;40636;52.424;-1.948;2023-02-28T08:29:37;9.68;;;4.65;;
43363;SDS011;40636;52.424;-1.948;2023-02-28T08:32:04;7.32;;;4.38;;
43363;SDS011;40636;52.424;-1.948;2023-02-28T08:34:45;9.52;;;4.53;;
43363;SDS011;40636;52.424;-1.948;2023-02-28T08:37:13;9.55;;;4.65;;
43363;SDS011;40636;52.424;-1.948;2023-02-28T08:39:40;7.47;;;4.68;;
43363;SDS011;40636;52.424;-1.948;2023-02-28T08:42:07;6.20;;;3.92;;
43363;SDS011;40636;52.424;-1.948;2023-02-28T08:44:33;9.00;;;4.90;;
43363;SDS011;40636;52.424;-1.948;2023-02-28T08:47:00;9.10;;;4.78;;
43363;SDS011;40636;52.424;-1.948;2023-02-28T08:49:27;9.07;;;4.82;;
43363;SDS011;40636;52.424;-1.948;2023-02-28T08:51:54;9.40;;;5.07;;
43363;SDS011;40636;52.424;-1.948;2023-02-28T08:54:23;9.60;;;5.03;;
43363;SDS011;40636;52.424;-1.948;2023-02-28T08:56:50;6.97;;;4.55;;
43363;SDS011;40636;52.424;-1.948;2023-02-28T08:59:17;9.95;;;5.07;;
43363;SDS011;40636;52.424;-1.948;2023-02-28T09:01:43;9.52;;;5.43;;
43363;SDS011;40636;52.424;-1.948;2023-02-28T09:04:10;6.47;;;3.65;;
43363;SDS011;40636;52.424;-1.948;2023-02-28T09:06:42;6.40;;;3.97;;
43363;SDS011;40636;52.424;-1.948;2023-02-28T09:09:10;6.53;;;3.47;;
43363;SDS011;40636;52.424;-1.948;2023-02-28T09:11:37;8.93;;;4.18;;
43363;SDS011;40636;52.424;-1.948;2023-02-28T09:14:03;6.95;;;3.85;;
43363;SDS011;40636;52.424;-1.948;2023-02-28T09:16:31;6.65;;;3.67;;
43363;SDS011;40636;52.424;-1.948;2023-02-28T09:18:59;7.45;;;4.10;;
43363;SDS011;40636;52.424;-1.948;2023-02-28T09:21:26;8.77;;;4.05;;
43363;SDS011;40636;52.424;-1.948;2023-02-28T09:23:54;6.20;;;3.90;;
43363;SDS011;40636;52.424;-1.948;2023-02-28T09:26:25;7.38;;;3.88;;
43363;SDS011;40636;52.424;-1.948;2023-02-28T09:29:04;7.82;;;3.50;;
43363;SDS011;40636;52.424;-1.948;2023-02-28T09:31:31;8.15;;;4.45;;
43363;SDS011;40636;52.424;-1.948;2023-02-28T09:33:58;6.50;;;3.72;;
43363;SDS011;40636;52.424;-1.948;2023-02-28T09:36:26;8.15;;;4.00;;
43363;SDS011;40636;52.424;-1.948;2023-02-28T09:39:09;6.32;;;4.03;;
43363;SDS011;40636;52.424;-1.948;2023-02-28T09:41:37;8.57;;;3.38;;
43363;SDS011;40636;52.424;-1.948;2023-02-28T09:44:15;5.47;;;2.95;;
43363;SDS011;40636;52.424;-1.948;2023-02-28T09:46:53;5.20;;;2.80;;
43363;SDS011;40636;52.424;-1.948;2023-02-28T09:50:03;5.47;;;2.65;;
43363;SDS011;40636;52.424;-1.948;2023-02-28T09:52:21;5.05;;;2.40;;
43363;SDS011;40636;52.424;-1.948;2023-02-28T09:54:54;5.53;;;2.83;;
43363;SDS011;40636;52.424;-1.948;2023-02-28T09:57:33;4.88;;;2.83;;
43363;SDS011;40636;52.424;-1.948;2023-02-28T10:00:07;5.57;;;2.80;;
43363;SDS011;40636;52.424;-1.948;2023-02-28T10:03:04;5.47;;;2.00;;
43363;SDS011;40636;52.424;-1.948;2023-02-28T10:08:34;3.75;;;2.33;;
43363;SDS011;40636;52.424;-1.948;2023-02-28T10:11:09;4.75;;;2.75;;
43363;SDS011;40636;52.424;-1.948;2023-02-28T10:13:46;6.20;;;2.25;;
43363;SDS011;40636;52.424;-1.948;2023-02-28T10:16:26;4.80;;;2.88;;
43363;SDS011;40636;52.424;-1.948;2023-02-28T10:19:09;4.32;;;2.10;;
43363;SDS011;40636;52.424;-1.948;2023-02-28T10:21:52;6.07;;;2.58;;
43363;SDS011;40636;52.424;-1.948;2023-02-28T10:24:34;3.67;;;2.20;;
43363;SDS011;40636;52.424;-1.948;2023-02-28T10:27:17;3.35;;;1.90;;
43363;SDS011;40636;52.424;-1.948;2023-02-28T10:29:46;2.78;;;1.70;;
43363;SDS011;40636;52.424;-1.948;2023-02-28T10:32:24;3.58;;;2.40;;
43363;SDS011;40636;52.424;-1.948;2023-02-28T10:34:57;3.28;;;1.70;;
43363;SDS011;40636;52.424;-1.948;2023-02-28T10:37:27;4.43;;;1.92;;
43363;SDS011;40636;52.424;-1.948;2023-02-28T10:39:54;4.50;;;2.22;;
43363;SDS011;40636;52.424;-1.948;2023-02-28T10:42:25;4.68;;;2.20;;
43363;SDS011;40636;52.424;-1.948;2023-02-28T10:47:39;4.15;;;2.10;;
43363;SDS011;40636;52.424;-1.948;2023-02-28T11:06:45;6.88;;;2.35;;
43363;SDS011;40636;52.424;-1.948;2023-02-28T11:12:02;3.38;;;2.35;;
43363;SDS011;40636;52.424;-1.948;2023-02-28T11:14:32;3.63;;;1.80;;
43363;SDS011;40636;52.424;-1.948;2023-02-28T11:17:22;6.10;;;2.38;;
43363;SDS011;40636;52.424;-1.948;2023-02-28T11:19:52;7.13;;;2.17;;
43363;SDS011;40636;52.424;-1.948;2023-02-28T11:22:23;6.40;;;5.03;;
43363;SDS011;40636;52.424;-1.948;2023-02-28T11:24:55;3.50;;;2.55;;
43363;SDS011;40636;52.424;-1.948;2023-02-28T11:30:00;5.00;;;3.05;;
43363;SDS011;40636;52.424;-1.948;2023-02-28T11:32:27;2.90;;;1.92;;
43363;SDS011;40636;52.424;-1.948;2023-02-28T11:35:04;3.50;;;2.55;;
43363;SDS011;40636;52.424;-1.948;2023-02-28T11:37:44;6.15;;;2.75;;
43363;SDS011;40636;52.424;-1.948;2023-02-28T11:40:16;4.90;;;2.45;;
43363;SDS011;40636;52.424;-1.948;2023-02-28T11:43:12;4.38;;;2.90;;
43363;SDS011;40636;52.424;-1.948;2023-02-28T11:48:51;3.85;;;2.03;;
43363;SDS011;40636;52.424;-1.948;2023-02-28T11:51:47;5.40;;;2.72;;
43363;SDS011;40636;52.424;-1.948;2023-02-28T11:56:57;4.72;;;2.80;;
43363;SDS011;40636;52.424;-1.948;2023-02-28T11:59:33;4.03;;;2.40;;
43363;SDS011;40636;52.424;-1.948;2023-02-28T12:09:59;4.57;;;2.25;;
43363;SDS011;40636;52.424;-1.948;2023-02-28T12:20:37;5.70;;;2.50;;
43363;SDS011;40636;52.424;-1.948;2023-02-28T12:23:10;3.50;;;2.35;;
43363;SDS011;40636;52.424;-1.948;2023-02-28T12:26:49;5.93;;;2.58;;
43363;SDS011;40636;52.424;-1.948;2023-02-28T12:29:08;7.05;;;2.15;;
43363;SDS011;40636;52.424;-1.948;2023-02-28T12:31:51;4.30;;;2.40;;
43363;SDS011;40636;52.424;-1.948;2023-02-28T12:34:25;10.07;;;2.95;;
43363;SDS011;40636;52.424;-1.948;2023-02-28T12:36:58;4.43;;;2.90;;
43363;SDS011;40636;52.424;-1.948;2023-02-28T12:39:33;3.28;;;2.38;;
43363;SDS011;40636;52.424;-1.948;2023-02-28T12:44:49;3.00;;;1.98;;
43363;SDS011;40636;52.424;-1.948;2023-02-28T12:47:20;3.17;;;2.60;;
43363;SDS011;40636;52.424;-1.948;2023-02-28T12:49:49;4.07;;;2.10;;
43363;SDS011;40636;52.424;-1.948;2023-02-28T12:52:19;3.92;;;2.78;;
43363;SDS011;40636;52.424;-1.948;2023-02-28T12:54:58;3.35;;;2.60;;
43363;SDS011;40636;52.424;-1.948;2023-02-28T12:57:40;3.95;;;2.97;;
43363;SDS011;40636;52.424;-1.948;2023-02-28T13:00:18;3.20;;;2.20;;
43363;SDS011;40636;52.424;-1.948;2023-02-28T13:07:58;6.35;;;2.88;;
43363;SDS011;40636;52.424;-1.948;2023-02-28T13:10:38;3.95;;;2.17;;
43363;SDS011;40636;52.424;-1.948;2023-02-28T13:13:11;2.63;;;1.98;;
43363;SDS011;40636;52.424;-1.948;2023-02-28T13:15:41;3.53;;;1.88;;
43363;SDS011;40636;52.424;-1.948;2023-02-28T13:18:32;2.20;;;2.00;;
43363;SDS011;40636;52.424;-1.948;2023-02-28T13:20:59;1.88;;;1.42;;
43363;SDS011;40636;52.424;-1.948;2023-02-28T13:28:58;2.17;;;1.50;;
43363;SDS011;40636;52.424;-1.948;2023-02-28T13:34:37;2.17;;;1.90;;
43363;SDS011;40636;52.424;-1.948;2023-02-28T13:39:58;3.88;;;1.73;;
43363;SDS011;40636;52.424;-1.948;2023-02-28T13:42:34;1.70;;;1.30;;
43363;SDS011;40636;52.424;-1.948;2023-02-28T13:47:43;2.55;;;1.48;;
43363;SDS011;40636;52.424;-1.948;2023-02-28T13:50:51;2.08;;;1.35;;
43363;SDS011;40636;52.424;-1.948;2023-02-28T13:55:41;1.52;;;1.27;;
43363;SDS011;40636;52.424;-1.948;2023-02-28T13:58:34;9.88;;;1.30;;
43363;SDS011;40636;52.424;-1.948;2023-02-28T14:01:14;1.75;;;1.40;;
43363;SDS011;40636;52.424;-1.948;2023-02-28T14:06:28;1.42;;;1.33;;
43363;SDS011;40636;52.424;-1.948;2023-02-28T14:11:38;3.90;;;1.50;;
43363;SDS011;40636;52.424;-1.948;2023-02-28T14:14:07;5.85;;;1.63;;
43363;SDS011;40636;52.424;-1.948;2023-02-28T14:16:43;1.58;;;1.38;;
43363;SDS011;40636;52.424;-1.948;2023-02-28T14:19:25;1.48;;;1.23;;
43363;SDS011;40636;52.424;-1.948;2023-02-28T14:22:52;3.22;;;1.70;;
43363;SDS011;40636;52.424;-1.948;2023-02-28T14:36:39;1.40;;;1.25;;
43363;SDS011;40636;52.424;-1.948;2023-02-28T14:39:12;2.67;;;1.20;;
43363;SDS011;40636;52.424;-1.948;2023-02-28T14:41:42;2.08;;;1.38;;
43363;SDS011;40636;52.424;-1.948;2023-02-28T14:44:15;1.33;;;1.20;;
43363;SDS011;40636;52.424;-1.948;2023-02-28T14:46:42;2.97;;;1.30;;
43363;SDS011;40636;52.424;-1.948;2023-02-28T14:49:17;2.40;;;1.50;;
43363;SDS011;40636;52.424;-1.948;2023-02-28T14:51:44;2.47;;;1.27;;
43363;SDS011;40636;52.424;-1.948;2023-02-28T14:54:13;1.10;;;1.00;;
43363;SDS011;40636;52.424;-1.948;2023-02-28T14:56:42;3.47;;;1.10;;
43363;SDS011;40636;52.424;-1.948;2023-02-28T14:59:26;3.38;;;1.60;;
43363;SDS011;40636;52.424;-1.948;2023-02-28T15:04:57;1.13;;;0.93;;
43363;SDS011;40636;52.424;-1.948;2023-02-28T15:07:26;4.07;;;1.45;;
43363;SDS011;40636;52.424;-1.948;2023-02-28T15:12:58;1.65;;;1.55;;
43363;SDS011;40636;52.424;-1.948;2023-02-28T15:16:13;2.97;;;1.75;;
43363;SDS011;40636;52.424;-1.948;2023-02-28T15:21:30;2.08;;;1.50;;
43363;SDS011;40636;52.424;-1.948;2023-02-28T15:23:59;1.98;;;1.80;;
43363;SDS011;40636;52.424;-1.948;2023-02-28T15:26:30;1.95;;;1.55;;
43363;SDS011;40636;52.424;-1.948;2023-02-28T15:29:07;1.73;;;1.33;;
43363;SDS011;40636;52.424;-1.948;2023-02-28T15:31:55;2.13;;;1.42;;
43363;SDS011;40636;52.424;-1.948;2023-02-28T15:34:28;1.40;;;1.20;;
43363;SDS011;40636;52.424;-1.948;2023-02-28T15:37:25;3.47;;;1.30;;
43363;SDS011;40636;52.424;-1.948;2023-02-28T15:39:57;2.50;;;1.70;;
43363;SDS011;40636;52.424;-1.948;2023-02-28T15:45:53;2.88;;;1.58;;
43363;SDS011;40636;52.424;-1.948;2023-02-28T15:48:34;2.50;;;1.65;;
43363;SDS011;40636;52.424;-1.948;2023-02-28T15:51:07;1.63;;;1.52;;
43363;SDS011;40636;52.424;-1.948;2023-02-28T15:53:44;1.52;;;1.30;;
43363;SDS011;40636;52.424;-1.948;2023-02-28T15:56:25;2.67;;;1.38;;
43363;SDS011;40636;52.424;-1.948;2023-02-28T15:59:00;2.15;;;1.38;;
43363;SDS011;40636;52.424;-1.948;2023-02-28T16:01:31;2.35;;;1.80;;
43363;SDS011;40636;52.424;-1.948;2023-02-28T16:04:01;1.77;;;1.40;;
43363;SDS011;40636;52.424;-1.948;2023-02-28T16:06:40;4.18;;;1.60;;
43363;SDS011;40636;52.424;-1.948;2023-02-28T16:09:09;3.25;;;1.30;;
43363;SDS011;40636;52.424;-1.948;2023-02-28T16:11:47;2.80;;;1.75;;
43363;SDS011;40636;52.424;-1.948;2023-02-28T16:14:19;1.48;;;1.35;;
43363;SDS011;40636;52.424;-1.948;2023-02-28T16:16:50;2.65;;;1.63;;
43363;SDS011;40636;52.424;-1.948;2023-02-28T16:19:19;2.17;;;1.35;;
43363;SDS011;40636;52.424;-1.948;2023-02-28T16:21:46;4.22;;;2.10;;
43363;SDS011;40636;52.424;-1.948;2023-02-28T16:24:14;2.15;;;1.40;;
43363;SDS011;40636;52.424;-1.948;2023-02-28T16:26:41;1.75;;;1.50;;
43363;SDS011;40636;52.424;-1.948;2023-02-28T16:29:19;1.15;;;1.05;;
43363;SDS011;40636;52.424;-1.948;2023-02-28T16:31:51;1.02;;;0.93;;
43363;SDS011;40636;52.424;-1.948;2023-02-28T16:34:17;2.13;;;1.15;;
43363;SDS011;40636;52.424;-1.948;2023-02-28T16:36:46;1.95;;;1.60;;
43363;SDS011;40636;52.424;-1.948;2023-02-28T16:39:14;1.27;;;1.17;;
43363;SDS011;40636;52.424;-1.948;2023-02-28T16:41:44;3.92;;;1.70;;
43363;SDS011;40636;52.424;-1.948;2023-02-28T16:46:56;1.75;;;1.33;;
43363;SDS011;40636;52.424;-1.948;2023-02-28T16:49:25;2.13;;;1.60;;
43363;SDS011;40636;52.424;-1.948;2023-02-28T16:51:52;1.88;;;1.58;;
43363;SDS011;40636;52.424;-1.948;2023-02-28T16:54:19;3.33;;;2.08;;
43363;SDS011;40636;52.424;-1.948;2023-02-28T16:56:47;2.35;;;1.58;;
43363;SDS011;40636;52.424;-1.948;2023-02-28T16:59:15;3.33;;;1.80;;
43363;SDS011;40636;52.424;-1.948;2023-02-28T17:01:46;3.58;;;1.95;;
43363;SDS011;40636;52.424;-1.948;2023-02-28T17:04:12;3.17;;;2.05;;
43363;SDS011;40636;52.424;-1.948;2023-02-28T17:06:40;3.40;;;2.25;;
43363;SDS011;40636;52.424;-1.948;2023-02-28T17:09:15;4.47;;;2.40;;
43363;SDS011;40636;52.424;-1.948;2023-02-28T17:11:45;7.65;;;2.92;;
43363;SDS011;40636;52.424;-1.948;2023-02-28T17:14:13;4.90;;;1.90;;
43363;SDS011;40636;52.424;-1.948;2023-02-28T17:16:40;2.50;;;1.83;;